Time;durP1;ratioP1;P1;durP2;ratioP2;P2;SDS_P1;SDS_P2;PMS_P1;PMS_P2;Temp;Humidity;BMP_temperature;BMP_pressure;BME280_temperature;BME280_humidity;BME280_pressure;Samples;Min_cycle;Max_cycle;Signal;HPM_P1;HPM_P2
2021/11/07 00:10:38;;;;;;;46.10;23.20;;;;;;;2.33;63.92;99780.81;113804;1193;98907;-66
2021/11/07 00:13:12;;;;;;;50.20;26.60;;;;;;;2.47;64.11;99777.27;113683;1193;112495;-65
2021/11/07 00:15:46;;;;;;;49.20;23.00;;;;;;;2.61;64.23;99766.20;113466;1193;99047;-66
2021/11/07 00:18:27;;;;;;;42.20;21.70;;;;;;;2.72;64.23;99761.14;113452;1193;106514;-66
2021/11/07 00:21:40;;;;;;;46.30;23.50;;;;;;;2.84;64.27;99754.50;113427;1195;98999;-65
2021/11/07 00:24:10;;;;;;;47.90;24.30;;;;;;;2.93;64.15;99747.23;113421;1193;99003;-66
2021/11/07 00:29:19;;;;;;;49.90;25.70;;;;;;;3.04;63.99;99744.63;113445;1193;97808;-67
2021/11/07 00:31:55;;;;;;;51.00;23.70;;;;;;;3.07;63.96;99741.35;113419;1193;110337;-65
2021/11/07 00:39:48;;;;;;;48.80;25.60;;;;;;;3.12;64.10;99740.15;113497;1186;112369;-65
2021/11/07 00:42:44;;;;;;;44.20;23.00;;;;;;;3.12;64.27;99741.73;113481;1193;98911;-65
2021/11/07 00:47:59;;;;;;;48.10;23.50;;;;;;;3.12;63.89;99736.64;113424;1194;98907;-66
2021/11/07 00:50:45;;;;;;;;;;;;;;;3.13;64.25;99724.86;113487;1194;98119;-66
2021/11/07 00:53:35;;;;;;;48.70;25.90;;;;;;;3.12;64.38;99721.21;113414;1186;113060;-67
2021/11/07 01:01:34;;;;;;;50.80;24.70;;;;;;;3.12;63.99;99705.98;113350;1193;97826;-65
2021/11/07 01:04:14;;;;;;;48.20;24.50;;;;;;;3.08;64.23;99695.23;113408;1193;98981;-65
2021/11/07 01:06:47;;;;;;;45.60;24.40;;;;;;;3.07;64.26;99693.33;113456;1193;113127;-66
2021/11/07 01:09:15;;;;;;;47.80;24.40;;;;;;;3.07;64.04;99694.23;113594;1192;96289;-66
2021/11/07 01:11:46;;;;;;;49.80;24.60;;;;;;;3.03;63.81;99690.86;113668;1193;108400;-66
2021/11/07 01:14:16;;;;;;;46.50;24.80;;;;;;;2.96;64.02;99691.23;113630;1192;98975;-66
2021/11/07 01:16:44;;;;;;;42.90;22.90;;;;;;;2.93;64.21;99687.30;113369;1193;98979;-66
2021/11/07 01:19:14;;;;;;;43.10;23.50;;;;;;;2.93;64.27;99684.33;113647;1193;113472;-66
2021/11/07 01:21:44;;;;;;;45.20;23.50;;;;;;;2.93;64.22;99688.35;113327;1192;96386;-66
2021/11/07 01:24:21;;;;;;;50.20;23.30;;;;;;;2.94;64.04;99683.43;113605;1193;107085;-67
2021/11/07 01:26:56;;;;;;;43.10;21.30;;;;;;;2.93;64.25;99676.44;113583;1192;99555;-68
2021/11/07 01:29:29;;;;;;;40.90;19.50;;;;;;;2.93;64.35;99666.09;113635;1192;98919;-67
2021/11/07 01:31:59;;;;;;;41.10;19.20;;;;;;;2.95;64.41;99663.77;113617;1192;113333;-66
2021/11/07 01:37:17;;;;;;;40.60;20.30;;;;;;;2.95;64.09;99662.17;113540;1192;107567;-66
2021/11/07 01:45:21;;;;;;;40.40;21.60;;;;;;;2.94;64.36;99641.73;113644;1193;113003;-67
2021/11/07 01:47:54;;;;;;;43.00;22.40;;;;;;;2.95;64.38;99638.20;113666;1192;96453;-67
2021/11/07 01:50:25;;;;;;;40.70;21.10;;;;;;;2.94;64.26;99636.13;113633;1192;107515;-66
2021/11/07 01:53:05;;;;;;;39.80;20.00;;;;;;;2.93;64.23;99629.85;113592;1192;99010;-66
2021/11/07 01:55:34;;;;;;;41.90;21.20;;;;;;;2.91;64.43;99633.39;113663;1192;97937;-68
2021/11/07 01:58:02;;;;;;;39.90;20.40;;;;;;;2.89;64.16;99629.95;113610;1192;113044;-68
2021/11/07 02:00:37;;;;;;;44.50;21.50;;;;;;;2.88;64.38;99628.95;113568;1192;96453;-66
2021/11/07 02:03:05;;;;;;;40.50;20.40;;;;;;;2.86;64.47;99625.52;113418;1193;106695;-67
2021/11/07 02:05:36;;;;;;;41.80;21.90;;;;;;;2.87;64.57;99619.89;113484;1193;96527;-67
2021/11/07 02:08:07;;;;;;;40.10;22.20;;;;;;;2.88;64.62;99612.48;113439;1193;96325;-67
2021/11/07 02:10:39;;;;;;;41.70;21.10;;;;;;;2.87;64.36;99603.39;113414;1193;112604;-66
2021/11/07 02:13:10;;;;;;;48.90;21.50;;;;;;;2.86;64.53;99599.59;113444;1193;98975;-65
2021/11/07 02:15:41;;;;;;;41.00;22.20;;;;;;;2.85;64.64;99598.05;113401;1193;108066;-66
2021/11/07 02:18:12;;;;;;;46.60;22.80;;;;;;;2.82;64.40;99598.83;113422;1194;98973;-66
2021/11/07 02:20:45;;;;;;;45.70;24.00;;;;;;;2.80;64.16;99603.45;113451;1193;98968;-65
2021/11/07 02:23:21;;;;;;;46.30;23.60;;;;;;;2.80;64.35;99602.77;113524;1192;112594;-66
2021/11/07 02:25:56;;;;;;;43.30;22.10;;;;;;;2.79;64.28;99606.80;113388;1194;98854;-67
2021/11/07 02:28:40;;;;;;;45.80;23.90;;;;;;;2.77;64.40;99603.38;113617;1193;108068;-65
2021/11/07 02:31:13;;;;;;;49.10;25.80;;;;;;;2.76;64.41;99606.90;113398;1193;98977;-65
2021/11/07 02:33:44;;;;;;;47.20;23.90;;;;;;;2.75;64.26;99612.55;113653;1192;96310;-67
2021/11/07 02:36:18;;;;;;;46.70;24.00;;;;;;;2.73;64.07;99611.22;113608;1192;112285;-66
2021/11/07 02:38:49;;;;;;;44.10;22.40;;;;;;;2.72;64.75;99610.90;113628;1193;98985;-67
2021/11/07 02:41:20;;;;;;;47.70;24.20;;;;;;;2.72;64.49;99606.36;113637;1192;108053;-67
2021/11/07 02:43:55;;;;;;;46.10;24.00;;;;;;;2.71;64.64;99599.73;113619;1192;96480;-66
2021/11/07 02:46:25;;;;;;;34.30;17.60;;;;;;;2.71;64.61;99593.42;113431;1193;98904;-65
2021/11/07 02:48:58;;;;;;;43.90;23.30;;;;;;;2.69;64.70;99582.42;113599;1196;113021;-66
2021/11/07 02:51:34;;;;;;;40.60;22.50;;;;;;;2.69;64.69;99577.35;113650;1192;98965;-63
2021/11/07 02:54:08;;;;;;;42.30;22.40;;;;;;;2.70;64.91;99579.26;113518;1192;107313;-62
2021/11/07 02:56:37;;;;;;;42.70;22.70;;;;;;;2.69;64.46;99569.30;113592;1192;98872;-64
2021/11/07 02:59:09;;;;;;;44.40;21.80;;;;;;;2.67;64.70;99571.98;113640;1193;98939;-60
2021/11/07 03:01:36;;;;;;;40.80;23.00;;;;;;;2.64;64.57;99575.58;113638;1193;112419;-61
2021/11/07 03:04:07;;;;;;;43.20;22.50;;;;;;;2.62;64.48;99581.09;113605;1177;99051;-65
2021/11/07 03:06:38;;;;;;;44.90;23.00;;;;;;;2.56;64.47;99580.56;113527;1193;108184;-66
2021/11/07 03:09:19;;;;;;;41.30;21.30;;;;;;;2.52;64.32;99562.83;113366;1193;96423;-68
2021/11/07 03:11:52;;;;;;;41.10;21.50;;;;;;;2.54;64.68;99557.70;113584;1193;98966;-67
2021/11/07 03:14:45;;;;;;;37.70;19.50;;;;;;;2.56;64.59;99553.45;113588;1192;112529;-66
2021/11/07 03:17:23;;;;;;;38.60;19.30;;;;;;;2.57;64.71;99548.52;113585;1192;98886;-64
2021/11/07 03:19:54;;;;;;;40.40;20.90;;;;;;;2.58;64.57;99541.14;113441;1193;107544;-66
2021/11/07 03:22:28;;;;;;;40.40;20.10;;;;;;;2.56;64.32;99533.29;113572;1194;99026;-65
2021/11/07 03:24:59;;;;;;;41.00;19.60;;;;;;;2.53;64.52;99527.95;113656;1193;99046;-66
2021/11/07 03:27:37;;;;;;;39.50;21.70;;;;;;;2.51;64.93;99525.40;113592;1193;112517;-63
2021/11/07 03:30:57;;;;;;;43.00;20.70;;;;;;;2.50;64.49;99525.92;113345;1196;99034;-64
2021/11/07 03:34:05;;;;;;;39.30;19.80;;;;;;;2.47;64.46;99514.15;113459;1193;107354;-65
2021/11/07 03:36:24;;;;;;;34.50;16.60;;;;;;;2.45;64.64;99508.08;113569;1193;98897;-66
2021/11/07 03:38:54;;;;;;;45.80;23.50;;;;;;;2.42;64.91;99507.66;113581;1193;97441;-65
2021/11/07 03:41:27;;;;;;;46.50;23.50;;;;;;;2.34;65.10;99494.25;113598;1192;113207;-67
2021/11/07 03:43:56;;;;;;;45.00;25.10;;;;;;;2.23;65.33;99485.87;113587;1193;98771;-64
2021/11/07 03:46:31;;;;;;;47.60;25.00;;;;;;;2.12;65.22;99486.89;113603;1193;108236;-65
2021/11/07 03:49:00;;;;;;;53.60;28.70;;;;;;;2.07;64.93;99484.41;113393;1193;99074;-66
2021/11/07 03:51:34;;;;;;;50.70;27.70;;;;;;;2.07;65.14;99487.38;113399;1193;98971;-66
2021/11/07 03:54:07;;;;;;;52.70;29.60;;;;;;;2.05;65.48;99488.84;113591;1192;112620;-65
2021/11/07 03:56:37;;;;;;;53.70;28.90;;;;;;;2.05;65.34;99490.95;113578;1193;98881;-65
2021/11/07 03:59:08;;;;;;;50.70;27.40;;;;;;;2.08;65.22;99481.95;113545;1192;107511;-66
2021/11/07 04:01:39;;;;;;;46.60;24.80;;;;;;;2.13;65.41;99480.92;113362;1193;96436;-66
2021/11/07 04:04:08;;;;;;;46.00;24.70;;;;;;;2.18;65.55;99473.25;113415;1193;99004;-67
2021/11/07 04:06:40;;;;;;;50.10;26.90;;;;;;;2.22;65.58;99470.67;113189;1194;111572;-68
2021/11/07 04:09:10;;;;;;;48.10;25.50;;;;;;;2.22;65.44;99465.06;113425;1193;98892;-66
2021/11/07 04:11:42;;;;;;;47.90;25.30;;;;;;;2.23;65.45;99459.95;113410;1193;107977;-67
2021/11/07 04:14:13;;;;;;;44.90;24.40;;;;;;;2.26;65.80;99457.77;113438;1193;98947;-68
2021/11/07 04:16:44;;;;;;;45.10;24.40;;;;;;;2.27;65.77;99459.30;113465;1193;98900;-67
2021/11/07 04:19:12;;;;;;;41.90;20.90;;;;;;;2.30;65.46;99455.55;113393;1193;113035;-65
2021/11/07 04:21:43;;;;;;;39.00;20.40;;;;;;;2.33;65.76;99449.48;113441;1186;99064;-65
2021/11/07 04:24:14;;;;;;;40.90;20.40;;;;;;;2.39;65.80;99441.27;113565;1192;108344;-66
2021/11/07 04:26:44;;;;;;;36.80;19.90;;;;;;;2.44;66.08;99438.63;113377;1193;98930;-66
2021/11/07 04:29:12;;;;;;;41.10;21.10;;;;;;;2.47;65.95;99432.74;113402;1193;96440;-65
2021/11/07 04:31:39;;;;;;;39.70;21.20;;;;;;;2.51;66.23;99426.84;113421;1193;112306;-66
2021/11/07 04:34:07;;;;;;;40.90;21.60;;;;;;;2.52;65.70;99425.77;113418;1193;98979;-65
2021/11/07 04:36:35;;;;;;;39.50;19.80;;;;;;;2.50;65.75;99424.77;113416;1193;107898;-65
2021/11/07 04:39:06;;;;;;;42.60;21.90;;;;;;;2.45;65.94;99428.79;113453;1193;99024;-67
2021/11/07 04:41:37;;;;;;;41.60;22.80;;;;;;;2.43;65.84;99431.15;113481;1193;98943;-66
2021/11/07 04:44:08;;;;;;;45.40;23.80;;;;;;;2.40;65.73;99431.59;113426;1193;111321;-66
2021/11/07 04:46:36;;;;;;;41.90;23.70;;;;;;;2.37;65.77;99431.15;113406;1193;99111;-66
2021/11/07 04:49:11;;;;;;;49.20;25.90;;;;;;;2.38;66.04;99423.44;113445;1193;107560;-67
2021/11/07 04:51:41;;;;;;;53.70;29.20;;;;;;;2.36;65.89;99420.00;113497;1193;96431;-68
2021/11/07 04:54:11;;;;;;;50.90;27.00;;;;;;;2.32;65.83;99419.24;113431;1193;99002;-68
2021/11/07 04:56:39;;;;;;;39.10;20.10;;;;;;;2.31;65.69;99417.53;113381;1194;113045;-69
2021/11/07 04:59:10;;;;;;;53.80;30.10;;;;;;;2.32;65.86;99412.40;113506;1193;98981;-67
2021/11/07 05:01:38;;;;;;;63.30;36.20;;;;;;;2.30;65.56;99414.58;113412;1193;107588;-67
2021/11/07 05:04:08;;;;;;;69.60;37.90;;;;;;;2.22;65.77;99421.13;113469;1193;97492;-67
2021/11/07 05:06:39;;;;;;;61.10;32.20;;;;;;;2.17;65.56;99417.46;113391;1193;100107;-67
2021/11/07 05:09:07;;;;;;;53.30;31.60;;;;;;;2.16;66.02;99413.64;113352;1193;112963;-67
2021/11/07 05:11:35;;;;;;;52.40;28.40;;;;;;;2.16;65.82;99399.10;113365;1193;98939;-66
2021/11/07 05:14:03;;;;;;;59.80;32.20;;;;;;;2.16;65.97;99395.11;113341;1193;108046;-66
2021/11/07 05:16:33;;;;;;;57.20;31.10;;;;;;;2.15;65.75;99391.44;113322;1193;98982;-67
2021/11/07 05:19:03;;;;;;;51.00;29.30;;;;;;;2.14;66.06;99383.95;113501;1193;99412;-66
2021/11/07 05:21:35;;;;;;;50.90;30.20;;;;;;;2.15;65.91;99386.90;113443;1193;113747;-68
2021/11/07 05:24:08;;;;;;;55.70;31.30;;;;;;;2.14;65.80;99380.10;113388;1193;98889;-67
2021/11/07 05:26:40;;;;;;;54.40;29.60;;;;;;;2.11;65.81;99374.45;113386;1193;108129;-67
2021/11/07 05:29:08;;;;;;;54.70;30.00;;;;;;;2.10;65.70;99365.90;113433;1193;98904;-66
2021/11/07 05:31:36;;;;;;;46.20;25.30;;;;;;;2.11;66.27;99364.47;113472;1193;98991;-67
2021/11/07 05:34:09;;;;;;;46.10;26.00;;;;;;;2.13;66.33;99359.31;113501;1193;111311;-66
2021/11/07 05:36:44;;;;;;;50.70;28.70;;;;;;;2.19;66.48;99350.00;113413;1193;98982;-67
2021/11/07 05:39:12;;;;;;;51.50;28.20;;;;;;;2.27;66.50;99347.67;113420;1193;107534;-67
2021/11/07 05:41:47;;;;;;;46.10;25.20;;;;;;;2.29;66.15;99346.18;113411;1193;98927;-67
2021/11/07 05:44:17;;;;;;;47.80;27.60;;;;;;;2.31;66.38;99335.60;113530;1193;98892;-66
2021/11/07 05:46:47;;;;;;;53.40;29.40;;;;;;;2.35;66.34;99331.79;113469;1193;111457;-65
2021/11/07 05:49:17;;;;;;;44.10;22.40;;;;;;;2.39;66.44;99334.66;113431;1192;99068;-66
2021/11/07 05:51:45;;;;;;;45.80;25.00;;;;;;;2.42;66.43;99328.27;113447;1193;108173;-65
2021/11/07 05:54:18;;;;;;;46.40;25.40;;;;;;;2.44;66.36;99326.78;113461;1193;98976;-67
2021/11/07 05:56:46;;;;;;;33.50;16.90;;;;;;;2.48;65.88;99331.90;113451;1193;96370;-65
2021/11/07 05:59:18;;;;;;;30.50;16.10;;;;;;;2.51;66.45;99332.63;113438;1193;113084;-65
2021/11/07 06:01:46;;;;;;;33.80;16.70;;;;;;;2.54;66.68;99333.77;113482;1193;98894;-66
2021/11/07 06:04:17;;;;;;;31.60;15.70;;;;;;;2.54;66.85;99329.75;113369;1193;108432;-66
2021/11/07 06:06:45;;;;;;;32.10;15.30;;;;;;;2.59;66.86;99333.24;113422;1192;97476;-67
2021/11/07 06:09:12;;;;;;;34.00;17.70;;;;;;;2.63;66.89;99330.48;113520;1193;98928;-66
2021/11/07 06:11:40;;;;;;;37.50;19.70;;;;;;;2.66;66.62;99328.62;113422;1193;113008;-65
2021/11/07 06:14:08;;;;;;;34.30;18.60;;;;;;;2.68;66.67;99328.19;113544;1193;98904;-66
2021/11/07 06:16:37;;;;;;;31.80;15.50;;;;;;;2.72;66.96;99331.56;113264;1193;108602;-65
2021/11/07 06:19:05;;;;;;;29.60;14.20;;;;;;;2.79;66.97;99332.37;113332;1195;98960;-67
2021/11/07 06:21:37;;;;;;;25.70;13.10;;;;;;;2.88;67.05;99339.56;113426;1193;98886;-66
2021/11/07 06:24:08;;;;;;;26.00;12.20;;;;;;;3.01;67.15;99345.06;113412;1193;113085;-66
2021/11/07 06:26:40;;;;;;;24.50;11.50;;;;;;;3.14;67.03;99347.89;113338;1193;98885;-66
2021/11/07 06:29:08;;;;;;;25.30;11.80;;;;;;;3.29;67.15;99345.93;113476;1193;107527;-66
2021/11/07 06:31:38;;;;;;;24.60;11.50;;;;;;;3.42;67.24;99342.97;113413;1193;99187;-67
2021/11/07 06:34:06;;;;;;;25.00;11.70;;;;;;;3.56;67.12;99340.69;113475;1193;99010;-66
2021/11/07 06:36:34;;;;;;;26.50;11.50;;;;;;;3.67;67.21;99338.31;113355;1193;113130;-65
2021/11/07 06:39:05;;;;;;;25.60;12.00;;;;;;;3.77;67.09;99341.27;113366;1192;98887;-66
2021/11/07 06:41:33;;;;;;;24.50;10.50;;;;;;;3.84;67.15;99348.70;113342;1193;108508;-66
2021/11/07 06:44:04;;;;;;;25.80;11.30;;;;;;;3.91;67.15;99351.04;113275;1193;99632;-66
2021/11/07 06:46:35;;;;;;;26.20;11.90;;;;;;;3.97;66.98;99355.55;113371;1193;98984;-68
2021/11/07 06:49:08;;;;;;;22.70;10.90;;;;;;;4.02;67.17;99346.92;113307;1193;113124;-68
2021/11/07 06:51:38;;;;;;;25.40;11.10;;;;;;;4.06;67.19;99334.84;113453;1193;98837;-68
2021/11/07 06:54:06;;;;;;;24.10;10.50;;;;;;;4.11;67.11;99334.27;113408;1193;108795;-67
2021/11/07 06:56:39;;;;;;;22.60;10.40;;;;;;;4.16;67.16;99333.71;113398;1193;99013;-67
2021/11/07 06:59:08;;;;;;;24.10;11.00;;;;;;;4.21;67.24;99332.09;113428;1193;98896;-67
2021/11/07 07:01:39;;;;;;;24.00;11.20;;;;;;;4.26;67.10;99328.35;113503;1192;113065;-68
2021/11/07 07:04:09;;;;;;;24.20;11.20;;;;;;;4.32;67.22;99322.33;113513;1193;98969;-67
2021/11/07 07:06:39;;;;;;;23.80;10.90;;;;;;;4.37;67.13;99314.02;113436;1187;107177;-66
2021/11/07 07:09:11;;;;;;;21.80;10.30;;;;;;;4.42;67.00;99303.46;113275;1193;98956;-68
2021/11/07 07:11:48;;;;;;;22.90;10.10;;;;;;;4.48;67.21;99295.65;115308;1192;97137;-66
2021/11/07 07:35:04;;;;;;;25.90;12.00;;;;;;;5.02;68.03;99276.04;113353;1193;98932;-67
2021/11/07 07:37:34;;;;;;;24.30;11.40;;;;;;;5.05;67.90;99280.27;113812;1193;97523;-67
2021/11/07 07:40:07;;;;;;;23.00;10.20;;;;;;;5.08;67.83;99283.67;113802;1184;113025;-67
2021/11/07 07:42:35;;;;;;;24.20;11.20;;;;;;;5.12;67.95;99285.59;113464;1193;98904;-67
2021/11/07 07:45:07;;;;;;;26.20;12.60;;;;;;;5.15;67.74;99288.23;113528;1193;108055;-67
2021/11/07 07:47:35;;;;;;;26.50;11.30;;;;;;;5.22;67.85;99287.92;113666;1192;98906;-67
2021/11/07 07:50:07;;;;;;;25.50;12.40;;;;;;;5.27;67.60;99279.60;113357;1193;98940;-67
2021/11/07 07:52:35;;;;;;;26.80;12.30;;;;;;;5.33;67.82;99274.90;113364;1193;112330;-67
2021/11/07 07:55:10;;;;;;;25.40;10.90;;;;;;;5.38;67.82;99271.85;113867;1193;98969;-66
2021/11/07 07:57:41;;;;;;;24.50;11.50;;;;;;;5.45;67.79;99268.22;113886;1192;107575;-68
2021/11/07 08:00:15;;;;;;;25.00;10.80;;;;;;;5.54;67.85;99255.13;113892;1192;96382;-66
2021/11/07 08:02:46;;;;;;;24.10;11.30;;;;;;;5.61;67.93;99239.99;113541;1193;98912;-68
2021/11/07 08:05:17;;;;;;;24.60;12.00;;;;;;;5.68;67.81;99227.70;113458;1193;113093;-68
2021/11/07 08:07:49;;;;;;;24.00;11.70;;;;;;;5.76;67.90;99225.52;113440;1193;98888;-71
2021/11/07 08:10:20;;;;;;;25.30;10.80;;;;;;;5.85;67.71;99234.77;113360;1193;107494;-66
2021/11/07 08:12:48;;;;;;;24.80;10.90;;;;;;;5.93;67.73;99245.98;113446;1193;99071;-66
2021/11/07 08:15:20;;;;;;;24.50;11.00;;;;;;;5.97;67.70;99240.14;113403;1196;99014;-64
2021/11/07 08:17:51;;;;;;;24.40;10.80;;;;;;;6.00;67.62;99228.20;113470;1193;112196;-67
2021/11/07 08:20:22;;;;;;;24.00;11.10;;;;;;;6.02;67.79;99221.23;113366;1193;99005;-66
2021/11/07 08:23:00;;;;;;;25.10;11.80;;;;;;;6.03;67.93;99213.96;113419;1192;108067;-67
2021/11/07 08:25:31;;;;;;;23.80;10.60;;;;;;;6.03;67.63;99222.80;113417;1186;98972;-66
2021/11/07 08:28:03;;;;;;;22.50;10.10;;;;;;;6.07;67.79;99218.88;113495;1193;96383;-66
2021/11/07 08:30:40;;;;;;;26.00;11.70;;;;;;;6.15;67.67;99204.73;113486;1193;112491;-67
2021/11/07 08:33:15;;;;;;;22.50;10.00;;;;;;;6.23;67.87;99191.61;113352;1193;96464;-66
2021/11/07 08:35:47;;;;;;;22.60;9.50;;;;;;;6.32;67.98;99187.66;113453;1193;107524;-67
2021/11/07 08:38:21;;;;;;;24.70;10.40;;;;;;;6.43;67.69;99174.20;113321;1193;98925;-66
2021/11/07 08:41:08;;;;;;;22.70;9.20;;;;;;;6.55;67.82;99155.25;113359;1193;99016;-66
2021/11/07 09:00:42;;;;;;;21.50;8.10;;;;;;;7.67;67.85;99143.09;113492;1193;98861;-70
2021/11/07 09:03:30;;;;;;;18.50;8.10;;;;;;;8.25;67.75;99132.90;113482;1192;108083;-67
2021/11/07 09:08:42;;;;;;;18.80;7.40;;;;;;;9.62;67.78;99125.00;113443;1192;98898;-67
2021/11/07 09:11:13;;;;;;;17.20;7.00;;;;;;;9.68;67.61;99123.86;113525;1193;112998;-67
2021/11/07 09:13:45;;;;;;;17.30;7.80;;;;;;;9.62;67.48;99123.05;113480;1192;98872;-69
2021/11/07 09:16:17;;;;;;;17.90;7.20;;;;;;;9.52;67.14;99128.67;113371;1193;107509;-66
2021/11/07 09:18:45;;;;;;;16.80;6.90;;;;;;;9.38;66.93;99126.06;113403;1193;99033;-69
2021/11/07 09:21:20;;;;;;;16.40;7.00;;;;;;;9.22;66.95;99128.16;113465;1193;98844;-66
2021/11/07 09:23:52;;;;;;;14.60;6.50;;;;;;;9.11;66.90;99118.84;113391;1193;113038;-68
2021/11/07 09:29:04;;;;;;;14.90;6.40;;;;;;;8.94;66.91;99110.55;113392;1192;108114;-65
2021/11/07 09:36:50;;;;;;;17.20;6.40;;;;;;;8.85;66.91;99099.08;113396;1193;113341;-67
2021/11/07 09:39:31;;;;;;;16.50;6.90;;;;;;;8.85;66.75;99094.18;113437;1193;98933;-67
2021/11/07 09:44:43;;;;;;;14.60;6.30;;;;;;;8.80;66.61;99081.36;113275;1195;98977;-68
2021/11/07 09:47:36;;;;;;;16.10;6.50;;;;;;;8.82;66.76;99074.39;113468;1193;99007;-68
2021/11/07 09:50:11;;;;;;;15.20;5.90;;;;;;;8.83;66.55;99064.61;113337;1193;112622;-68
2021/11/07 09:52:49;;;;;;;15.00;6.50;;;;;;;8.80;66.55;99065.64;113300;1192;96498;-68
2021/11/07 09:55:26;;;;;;;17.00;6.60;;;;;;;8.76;66.30;99074.77;113305;1193;107451;-68
2021/11/07 09:57:57;;;;;;;18.00;6.00;;;;;;;8.73;66.41;99077.42;113354;1193;99022;-67
2021/11/07 10:00:39;;;;;;;15.90;5.80;;;;;;;8.71;66.21;99070.32;113217;1193;99373;-66
2021/11/07 10:03:14;;;;;;;13.30;5.70;;;;;;;8.67;66.11;99071.30;113416;1192;113061;-66
2021/11/07 10:05:49;;;;;;;14.40;5.50;;;;;;;8.61;66.01;99069.00;113486;1192;99067;-66
2021/11/07 10:08:23;;;;;;;14.00;5.50;;;;;;;8.55;65.93;99072.90;113255;1193;109853;-66
2021/11/07 10:11:01;;;;;;;15.20;6.60;;;;;;;8.51;65.77;99069.30;113654;1193;98927;-67
2021/11/07 10:13:30;;;;;;;14.90;6.40;;;;;;;8.49;65.76;99059.88;113388;1192;98998;-67
2021/11/07 10:16:11;;;;;;;16.30;6.40;;;;;;;8.47;65.75;99064.05;113303;1193;113598;-66
2021/11/07 10:21:35;;;;;;;17.80;6.90;;;;;;;8.44;65.73;99045.27;113396;1193;108346;-67
2021/11/07 10:24:13;;;;;;;16.10;7.00;;;;;;;8.45;65.72;99039.78;113343;1193;99015;-69
2021/11/07 10:26:46;;;;;;;15.20;6.60;;;;;;;8.45;65.60;99030.56;113745;1192;96353;-68
2021/11/07 10:29:39;;;;;;;16.40;6.30;;;;;;;8.44;65.43;99020.01;113567;1192;112916;-64
2021/11/07 10:32:32;;;;;;;16.40;6.50;;;;;;;8.41;65.31;99017.58;113509;1192;99177;-67
2021/11/07 10:52:47;;;;;;;16.30;6.50;;;;;;;8.78;64.78;98984.07;113297;1193;98976;-67
2021/11/07 10:55:22;;;;;;;16.30;6.70;;;;;;;8.85;64.76;98982.77;113552;1192;98971;-68
2021/11/07 10:57:59;;;;;;;16.10;6.50;;;;;;;8.87;64.52;98973.77;113357;1192;112904;-70
2021/11/07 11:00:37;;;;;;;13.90;5.60;;;;;;;8.86;64.63;98965.41;113621;1193;99674;-69
2021/11/07 11:03:09;;;;;;;12.90;5.30;;;;;;;8.87;64.33;98959.79;113612;1193;107631;-68
2021/11/07 11:05:51;;;;;;;14.90;6.40;;;;;;;8.88;64.29;98950.87;113726;1192;98651;-67
2021/11/07 11:08:53;;;;;;;12.60;5.30;;;;;;;8.94;64.38;98946.92;113598;1193;99664;-69
2021/11/07 11:11:32;;;;;;;13.80;5.70;;;;;;;9.05;64.32;98947.30;113927;1192;113060;-68
2021/11/07 11:14:20;;;;;;;15.10;6.20;;;;;;;9.13;64.50;98946.55;113745;1193;98889;-67
2021/11/07 11:38:37;;;;;;;13.00;5.40;;;;;;;9.29;63.60;98899.98;113578;1177;111833;-72
2021/11/07 11:41:29;;;;;;;14.30;5.50;;;;;;;9.34;63.59;98897.37;113500;1192;97607;-71
2021/11/07 11:44:02;;;;;;;12.20;5.20;;;;;;;9.36;63.51;98890.96;113504;1193;107596;-70
2021/11/07 11:47:08;;;;;;;12.00;4.90;;;;;;;9.40;63.45;98885.58;113376;1192;98870;-73
2021/11/07 12:06:43;;;;;;;11.10;4.70;;;;;;;9.73;62.53;98827.01;113408;1193;113761;-70
2021/11/07 12:12:30;;;;;;;12.20;4.90;;;;;;;9.69;62.44;98820.39;113615;1193;108034;-69
2021/11/07 12:18:08;;;;;;;13.20;5.30;;;;;;;9.71;62.13;98813.66;113363;1192;98910;-74
2021/11/07 12:20:42;;;;;;;14.80;5.70;;;;;;;9.69;62.13;98807.81;113424;1192;112598;-70
2021/11/07 12:23:32;;;;;;;12.40;4.80;;;;;;;9.67;61.91;98799.45;113793;1193;99102;-71
2021/11/07 12:26:27;;;;;;;13.20;5.30;;;;;;;9.64;62.15;98798.36;113733;1192;107584;-70
2021/11/07 12:28:55;;;;;;;14.60;5.20;;;;;;;9.66;62.24;98797.55;113271;1193;99007;-70
2021/11/07 12:31:30;;;;;;;14.90;5.60;;;;;;;9.69;62.10;98793.10;113596;1192;98879;-70
2021/11/07 12:34:10;;;;;;;13.90;5.50;;;;;;;9.68;61.77;98790.33;113541;1193;113462;-70
2021/11/07 12:42:35;;;;;;;13.40;4.80;;;;;;;9.57;61.44;98776.94;113719;1192;99007;-71
2021/11/07 12:45:30;;;;;;;13.80;5.30;;;;;;;9.52;61.40;98769.53;113531;1193;98973;-70
2021/11/07 12:48:03;;;;;;;11.50;4.90;;;;;;;9.48;61.27;98766.42;113652;1192;112532;-71
2021/11/07 12:51:08;;;;;;;11.90;4.90;;;;;;;9.46;61.41;98769.27;113350;1192;99016;-71
2021/11/07 12:54:02;;;;;;;9.80;4.30;;;;;;;9.46;61.53;98756.48;113391;1193;107481;-70
2021/11/07 12:56:47;;;;;;;10.90;4.60;;;;;;;9.47;61.39;98757.84;113530;1192;99591;-70
2021/11/07 12:59:22;;;;;;;14.00;5.10;;;;;;;9.47;61.41;98752.02;113599;1192;98913;-69
2021/11/07 13:02:01;;;;;;;11.90;4.60;;;;;;;9.48;61.37;98745.23;113392;1193;112731;-74
2021/11/07 13:04:32;;;;;;;11.30;4.70;;;;;;;9.49;61.21;98738.43;113547;1192;98285;-73
2021/11/07 13:07:02;;;;;;;14.00;5.80;;;;;;;9.47;61.31;98733.75;113277;1193;107586;-71
2021/11/07 13:09:38;;;;;;;12.80;5.40;;;;;;;9.48;61.47;98723.41;113279;1193;99040;-70
2021/11/07 13:12:19;;;;;;;15.30;5.50;;;;;;;9.51;61.32;98725.52;113339;1193;98004;-69
2021/11/07 13:14:55;;;;;;;11.40;4.50;;;;;;;9.51;61.31;98725.16;113250;1193;113259;-71
2021/11/07 13:17:52;;;;;;;11.80;4.90;;;;;;;9.54;61.19;98721.61;113295;1192;100074;-69
2021/11/07 13:20:25;;;;;;;13.00;5.30;;;;;;;9.55;61.20;98715.52;113350;1192;108117;-73
2021/11/07 13:28:43;;;;;;;;;;;;;;;9.58;61.15;98717.61;113334;1193;113506;-68
2021/11/07 13:31:21;;;;;;;13.80;5.50;;;;;;;9.57;61.13;98718.36;113393;1192;97406;-71
2021/11/07 13:33:50;;;;;;;12.10;5.00;;;;;;;9.59;60.98;98721.40;113283;1192;107625;-69
2021/11/07 13:36:20;;;;;;;14.90;5.10;;;;;;;9.59;60.87;98711.14;113347;1193;99039;-70
2021/11/07 13:38:59;;;;;;;12.50;5.10;;;;;;;9.58;60.96;98702.91;113474;1192;97065;-71
2021/11/07 13:41:28;;;;;;;13.90;5.70;;;;;;;9.58;60.73;98697.21;113565;1192;112996;-70
2021/11/07 13:44:09;;;;;;;12.20;5.00;;;;;;;9.57;60.63;98700.52;113418;1193;99098;-71
2021/11/07 13:46:51;;;;;;;14.30;5.20;;;;;;;9.56;60.72;98694.92;113512;1193;107145;-71
2021/11/07 13:49:20;;;;;;;13.40;4.70;;;;;;;9.56;60.78;98694.37;113529;1192;98898;-72
2021/11/07 13:52:03;;;;;;;13.10;5.60;;;;;;;9.58;60.84;98690.16;113459;1192;98894;-71
2021/11/07 13:54:38;;;;;;;12.50;5.00;;;;;;;9.61;60.91;98685.52;113437;1192;112538;-70
2021/11/07 13:57:06;;;;;;;13.40;5.10;;;;;;;9.61;60.89;98676.98;113710;1192;99613;-72
2021/11/07 13:59:40;;;;;;;15.40;5.30;;;;;;;9.62;60.80;98672.88;113616;1193;107522;-69
2021/11/07 14:02:26;;;;;;;12.60;5.50;;;;;;;9.62;60.81;98662.23;113360;1193;98903;-72
2021/11/07 14:04:58;;;;;;;13.50;5.70;;;;;;;9.62;60.70;98658.70;113523;1192;98871;-72
2021/11/07 14:07:29;;;;;;;14.90;4.70;;;;;;;9.61;60.70;98655.22;113658;1192;112240;-70
2021/11/07 14:10:04;;;;;;;13.60;4.70;;;;;;;9.62;60.81;98656.55;113621;1192;98879;-71
2021/11/07 14:12:41;;;;;;;8.70;4.50;;;;;;;9.63;60.80;98656.12;113544;1192;107521;-71
2021/11/07 14:15:27;;;;;;;12.00;5.40;;;;;;;9.64;60.78;98651.95;113443;1192;98992;-71
2021/11/07 14:18:18;;;;;;;12.20;5.00;;;;;;;9.65;60.83;98646.92;113399;1192;99719;-72
2021/11/07 14:21:03;;;;;;;14.20;5.80;;;;;;;9.65;60.71;98641.10;113521;1192;112534;-71
2021/11/07 14:23:48;;;;;;;12.50;5.20;;;;;;;9.65;60.79;98636.12;113611;1192;98967;-70
2021/11/07 14:27:06;;;;;;;13.80;5.00;;;;;;;9.64;60.77;98636.38;113579;1192;108775;-72
2021/11/07 14:29:21;;;;;;;14.60;5.10;;;;;;;9.63;60.75;98633.30;113504;1187;99123;-69
2021/11/07 14:32:03;;;;;;;14.60;5.40;;;;;;;9.61;60.68;98630.77;113325;1193;98943;-70